ASA2341 KRDU-KDCA
Flight info
| Callsign | ASA2341 |
|---|---|
| Flight time | N/A |
| Altitude | 29000 |
| Route | BEXGO5 BOUSY WAVES CAPSS4 |
| Aircraft | B738/M-SDE2E3FGHIRWXY/LB1 |
Departure
| Time | 2026-04-30 02:44 |
|---|---|
| Airport | Raleigh-Durham International Airport (KRDU) |
Arrival
| Time | N/A |
|---|---|
| Airport | Ronald Reagan Washington National Airport (KDCA) |
| Time | Latitude | Longitude | Altitude | Speed | Heading |
|---|---|---|---|---|---|
| 2026-04-30 02:23 | 35.87311 | -78.79044 | 433 ft | 0 kts | 341° |
| 2026-04-30 02:36 | 35.87300 | -78.79040 | 433 ft | 3 kts | 341° |
| 2026-04-30 02:36 | 35.87281 | -78.79031 | 427 ft | 3 kts | 341° |
| 2026-04-30 02:37 | 35.87261 | -78.79023 | 424 ft | 3 kts | 342° |
| 2026-04-30 02:37 | 35.87242 | -78.79016 | 424 ft | 3 kts | 347° |
| 2026-04-30 02:37 | 35.87222 | -78.79012 | 419 ft | 3 kts | 2° |
| 2026-04-30 02:37 | 35.87206 | -78.79016 | 422 ft | 2 kts | 38° |
| 2026-04-30 02:38 | 35.87202 | -78.79019 | 432 ft | 1 kts | 45° |
| 2026-04-30 02:40 | 35.87215 | -78.79003 | 424 ft | 9 kts | 45° |
| 2026-04-30 02:40 | 35.87290 | -78.78908 | 423 ft | 21 kts | 46° |
| 2026-04-30 02:40 | 35.87386 | -78.78793 | 427 ft | 19 kts | 49° |
| 2026-04-30 02:41 | 35.87473 | -78.78679 | 433 ft | 18 kts | 47° |
| 2026-04-30 02:41 | 35.87559 | -78.78569 | 432 ft | 18 kts | 47° |
| 2026-04-30 02:41 | 35.87647 | -78.78467 | 427 ft | 17 kts | 48° |
| 2026-04-30 02:41 | 35.87734 | -78.78366 | 428 ft | 17 kts | 43° |
| 2026-04-30 02:42 | 35.87808 | -78.78257 | 428 ft | 16 kts | 47° |
| 2026-04-30 02:42 | 35.87890 | -78.78162 | 419 ft | 16 kts | 42° |
| 2026-04-30 02:42 | 35.87957 | -78.78082 | 425 ft | 8 kts | 57° |
| 2026-04-30 02:42 | 35.87963 | -78.78038 | 427 ft | 0 kts | 94° |
| 2026-04-30 02:43 | 35.87954 | -78.78018 | 422 ft | 9 kts | 131° |
| 2026-04-30 02:43 | 35.87893 | -78.78005 | 423 ft | 10 kts | 204° |
| 2026-04-30 02:43 | 35.87830 | -78.78055 | 422 ft | 11 kts | 221° |
| 2026-04-30 02:43 | 35.87826 | -78.78059 | 421 ft | 0 kts | 226° |
| 2026-04-30 02:44 | 35.87825 | -78.78060 | 421 ft | 6 kts | 226° |
| 2026-04-30 02:44 | 35.87562 | -78.78391 | 427 ft | 99 kts | 225° |
| 2026-04-30 02:44 | 35.86875 | -78.79217 | 516 ft | 169 kts | 225° |
| 2026-04-30 02:44 | 35.85998 | -78.80380 | 1127 ft | 196 kts | 223° |
| 2026-04-30 02:45 | 35.84921 | -78.81275 | 2452 ft | 185 kts | 206° |
| 2026-04-30 02:45 | 35.83654 | -78.81815 | 3057 ft | 207 kts | 201° |
| 2026-04-30 02:45 | 35.82181 | -78.82386 | 3389 ft | 232 kts | 202° |
| 2026-04-30 02:45 | 35.80600 | -78.82919 | 4012 ft | 244 kts | 188° |
| 2026-04-30 02:46 | 35.78901 | -78.82504 | 4695 ft | 259 kts | 158° |
| 2026-04-30 02:46 | 35.77491 | -78.81061 | 5332 ft | 272 kts | 128° |
| 2026-04-30 02:46 | 35.76750 | -78.78902 | 5998 ft | 279 kts | 98° |
| 2026-04-30 02:46 | 35.76765 | -78.76518 | 6663 ft | 280 kts | 82° |
| 2026-04-30 02:47 | 35.76979 | -78.74127 | 7309 ft | 282 kts | 81° |
| 2026-04-30 02:47 | 35.77213 | -78.71712 | 7956 ft | 286 kts | 81° |
| 2026-04-30 02:47 | 35.77456 | -78.69261 | 8626 ft | 290 kts | 81° |
| 2026-04-30 02:47 | 35.77804 | -78.66850 | 9228 ft | 290 kts | 65° |
| 2026-04-30 02:48 | 35.78973 | -78.64914 | 9843 ft | 279 kts | 28° |
| 2026-04-30 02:48 | 35.80724 | -78.64086 | 10494 ft | 266 kts | 4° |
| 2026-04-30 02:48 | 35.82554 | -78.63647 | 11141 ft | 271 kts | 6° |
| 2026-04-30 02:48 | 35.84399 | -78.63074 | 11759 ft | 277 kts | 9° |
| 2026-04-30 02:49 | 35.86247 | -78.62344 | 11994 ft | 280 kts | 13° |
| 2026-04-30 02:49 | 35.88066 | -78.61482 | 12017 ft | 281 kts | 16° |
| 2026-04-30 02:49 | 35.89871 | -78.60518 | 12018 ft | 283 kts | 18° |
| 2026-04-30 02:49 | 35.91656 | -78.59485 | 12019 ft | 284 kts | 19° |
| 2026-04-30 02:50 | 35.93407 | -78.58419 | 12028 ft | 285 kts | 20° |
| 2026-04-30 02:50 | 35.95170 | -78.57305 | 12026 ft | 286 kts | 21° |
| 2026-04-30 02:50 | 35.96935 | -78.56162 | 12037 ft | 287 kts | 21° |
| 2026-04-30 02:50 | 35.98698 | -78.55004 | 12029 ft | 287 kts | 22° |
| 2026-04-30 02:51 | 36.00459 | -78.53838 | 12024 ft | 288 kts | 22° |
| 2026-04-30 02:51 | 36.02219 | -78.52664 | 12025 ft | 287 kts | 22° |
| 2026-04-30 02:51 | 36.03977 | -78.51486 | 12029 ft | 287 kts | 22° |
| 2026-04-30 02:51 | 36.05732 | -78.50306 | 12026 ft | 287 kts | 22° |
| 2026-04-30 02:52 | 36.07486 | -78.49125 | 12025 ft | 287 kts | 22° |